Time;durP1;ratioP1;P1;durP2;ratioP2;P2;SDS_P1;SDS_P2;PMS_P1;PMS_P2;Temp;Humidity;BMP_temperature;BMP_pressure;BME280_temperature;BME280_humidity;BME280_pressure;Samples;Min_cycle;Max_cycle;Signal;HPM_P1;HPM_P2
2024/04/07 00:01:33;;;;;;;20.50;13.80;;;;;;;10.08;74.14;100483.13;130872;1253;107795;-79
2024/04/07 00:04:38;;;;;;;28.50;16.90;;;;;;;10.09;74.37;100484.76;130842;1256;107916;-79
2024/04/07 00:07:43;;;;;;;25.20;16.20;;;;;;;10.10;74.24;100478.82;130858;1256;106466;-79
2024/04/07 00:10:49;;;;;;;27.20;17.00;;;;;;;10.10;74.47;100472.96;130868;1254;106647;-79
2024/04/07 00:13:54;;;;;;;25.70;15.80;;;;;;;10.07;74.58;100481.79;130867;1256;108904;-79
2024/04/07 00:16:59;;;;;;;26.80;16.80;;;;;;;10.01;74.39;100484.91;130907;1257;108708;-79
2024/04/07 00:20:07;;;;;;;27.90;17.00;;;;;;;9.98;74.60;100488.23;130843;1256;108792;-79
2024/04/07 00:23:14;;;;;;;28.60;16.40;;;;;;;9.98;74.75;100488.16;130903;1253;108306;-79
2024/04/07 00:26:20;;;;;;;26.50;16.50;;;;;;;9.94;74.83;100487.53;130908;1253;107162;-79
2024/04/07 00:29:25;;;;;;;25.40;15.10;;;;;;;9.92;74.80;100491.33;130906;1256;106599;-80
2024/04/07 00:32:31;;;;;;;33.60;18.10;;;;;;;9.90;74.74;100491.71;130796;1256;199176;-79
2024/04/07 00:35:36;;;;;;;33.30;18.40;;;;;;;9.90;74.80;100494.44;130845;1256;107748;-79
2024/04/07 00:38:41;;;;;;;29.10;17.50;;;;;;;9.90;74.93;100489.94;130861;1256;108286;-79
2024/04/07 00:41:46;;;;;;;36.10;19.60;;;;;;;9.91;74.84;100490.04;130881;1252;108749;-79
2024/04/07 00:44:52;;;;;;;36.50;20.00;;;;;;;9.89;75.05;100490.61;130869;1255;107737;-79
2024/04/07 00:47:58;;;;;;;34.20;19.60;;;;;;;9.85;74.97;100485.23;130860;1256;106589;-79
2024/04/07 00:51:04;;;;;;;34.90;19.50;;;;;;;9.81;75.12;100486.46;130889;1256;108460;-79
2024/04/07 00:54:10;;;;;;;34.40;20.30;;;;;;;9.75;75.30;100484.20;130885;1256;106791;-79
2024/04/07 00:57:16;;;;;;;34.30;19.60;;;;;;;9.72;75.31;100486.27;130887;1256;107802;-79
2024/04/07 01:00:22;;;;;;;28.00;16.40;;;;;;;9.67;75.21;100491.17;130911;1254;108679;-79
2024/04/07 01:03:27;;;;;;;29.40;16.20;;;;;;;9.65;75.26;100491.70;130863;1256;106387;-79
2024/04/07 01:06:34;;;;;;;26.30;16.70;;;;;;;9.66;75.35;100487.91;130893;1256;107264;-79
2024/04/07 01:09:39;;;;;;;28.60;17.40;;;;;;;9.68;75.50;100480.29;130903;1256;106705;-80
2024/04/07 01:12:54;;;;;;;29.60;18.00;;;;;;;9.69;75.60;100484.18;130878;1253;107720;-80
2024/04/07 01:15:59;;;;;;;28.00;18.00;;;;;;;9.69;75.75;100482.79;130924;1256;107716;-79
2024/04/07 01:19:04;;;;;;;27.20;17.00;;;;;;;9.66;75.70;100484.13;130895;1253;108644;-79
2024/04/07 01:22:09;;;;;;;27.10;17.40;;;;;;;9.64;75.63;100483.26;130903;1256;107822;-79
2024/04/07 01:25:17;;;;;;;26.40;16.90;;;;;;;9.62;75.73;100487.39;130925;1256;106999;-79
2024/04/07 01:28:23;;;;;;;27.70;17.00;;;;;;;9.58;75.68;100493.42;130909;1251;106380;-79
2024/04/07 01:31:28;;;;;;;24.60;16.00;;;;;;;9.54;75.65;100491.13;130876;1254;108727;-79
2024/04/07 01:34:33;;;;;;;23.00;13.70;;;;;;;9.52;75.93;100492.23;130861;1253;108731;-79
2024/04/07 01:37:38;;;;;;;25.40;16.60;;;;;;;9.51;75.59;100500.49;130857;1251;107810;-79
2024/04/07 01:40:45;;;;;;;24.60;15.60;;;;;;;9.50;75.66;100504.24;130886;1256;108822;-79
2024/04/07 01:43:50;;;;;;;24.60;16.10;;;;;;;9.51;75.78;100502.77;130867;1256;108546;-79
2024/04/07 01:46:55;;;;;;;24.20;16.50;;;;;;;9.53;75.84;100502.79;130873;1256;108510;-79
2024/04/07 01:50:00;;;;;;;23.50;15.60;;;;;;;9.54;76.13;100510.27;130883;1256;106810;-79
2024/04/07 01:53:06;;;;;;;23.80;15.70;;;;;;;9.52;75.94;100508.14;130887;1255;108381;-79
2024/04/07 01:56:11;;;;;;;24.60;16.40;;;;;;;9.49;76.00;100510.52;130900;1253;108614;-79
2024/04/07 01:59:16;;;;;;;26.40;17.10;;;;;;;9.47;76.14;100513.05;130892;1256;107560;-78
2024/04/07 02:02:22;;;;;;;23.40;14.70;;;;;;;9.44;76.03;100509.63;130850;1256;106613;-78
2024/04/07 02:05:27;;;;;;;19.90;12.90;;;;;;;9.40;76.15;100502.66;130861;1251;108055;-81
2024/04/07 02:08:33;;;;;;;23.70;14.40;;;;;;;9.39;76.22;100496.14;130872;1254;106556;-81
2024/04/07 02:11:39;;;;;;;21.60;13.80;;;;;;;9.41;76.48;100490.50;130955;1256;107854;-80
2024/04/07 02:14:44;;;;;;;22.10;15.60;;;;;;;9.45;76.60;100488.06;130874;1256;106832;-78
2024/04/07 02:17:50;;;;;;;21.00;15.00;;;;;;;9.47;76.60;100479.50;130916;1251;106535;-78
2024/04/07 02:20:55;;;;;;;23.90;15.60;;;;;;;9.48;76.59;100472.66;130877;1256;106695;-78
2024/04/07 02:24:00;;;;;;;25.10;15.50;;;;;;;9.47;76.63;100467.58;130892;1256;108795;-78
2024/04/07 02:27:06;;;;;;;19.70;13.90;;;;;;;9.44;76.94;100467.98;130875;1256;108645;-78
2024/04/07 02:30:12;;;;;;;21.80;14.30;;;;;;;9.40;76.66;100466.23;130638;1256;107928;-78
2024/04/07 02:33:17;;;;;;;20.20;13.80;;;;;;;9.36;76.82;100461.98;130879;1256;107607;-78
2024/04/07 02:36:22;;;;;;;20.20;12.40;;;;;;;9.34;76.81;100466.14;130812;1257;106628;-78
2024/04/07 02:39:28;;;;;;;22.30;13.80;;;;;;;9.34;76.94;100473.59;130861;1256;107744;-78
2024/04/07 02:42:33;;;;;;;19.90;14.40;;;;;;;9.36;76.88;100469.79;130900;1254;107307;-78
2024/04/07 02:49:01;;;;;;;20.70;14.50;;;;;;;9.40;76.99;100467.55;130896;1253;108780;-78
2024/04/07 02:52:07;;;;;;;22.00;14.80;;;;;;;9.40;77.10;100468.97;130866;1256;106828;-78
2024/04/07 02:55:12;;;;;;;22.10;14.10;;;;;;;9.37;76.95;100468.47;130880;1253;107448;-78
2024/04/07 02:58:18;;;;;;;21.30;15.00;;;;;;;9.36;77.03;100471.61;130878;1256;108218;-78
2024/04/07 03:01:23;;;;;;;20.70;15.20;;;;;;;9.35;77.27;100475.75;130843;1256;107845;-78
2024/04/07 03:04:28;;;;;;;21.70;14.10;;;;;;;9.31;77.26;100488.93;130856;1251;107661;-78
2024/04/07 03:07:34;;;;;;;18.60;13.10;;;;;;;9.30;77.55;100480.38;130857;1256;106803;-78
2024/04/07 03:10:39;;;;;;;21.50;14.10;;;;;;;9.30;77.62;100472.30;130896;1251;108809;-78
2024/04/07 03:13:44;;;;;;;19.00;14.00;;;;;;;9.36;78.05;100470.23;130847;1256;107653;-78
2024/04/07 03:16:50;;;;;;;19.80;13.80;;;;;;;9.41;78.10;100475.79;130945;1256;107929;-78
2024/04/07 03:19:55;;;;;;;21.00;14.40;;;;;;;9.43;78.09;100473.23;130938;1253;108608;-78
2024/04/07 03:23:00;;;;;;;21.40;15.70;;;;;;;9.44;78.20;100466.77;130836;1256;107119;-80
2024/04/07 03:26:06;;;;;;;20.10;14.40;;;;;;;9.46;77.94;100472.70;130868;1254;108761;-80
2024/04/07 03:29:11;;;;;;;21.50;14.50;;;;;;;9.45;78.10;100476.28;130854;1256;107733;-78
2024/04/07 03:32:16;;;;;;;20.20;13.50;;;;;;;9.44;77.96;100475.14;130845;1254;106978;-78
2024/04/07 03:35:21;;;;;;;21.00;12.50;;;;;;;9.43;78.26;100471.48;130833;1256;107105;-78
2024/04/07 03:38:26;;;;;;;20.80;14.10;;;;;;;9.44;78.15;100480.77;130908;1255;107463;-78
2024/04/07 03:41:32;;;;;;;20.40;14.10;;;;;;;9.48;78.16;100485.09;130826;1254;107836;-78
2024/04/07 03:44:37;;;;;;;21.00;14.20;;;;;;;9.52;78.30;100487.60;130886;1256;106462;-78
2024/04/07 03:47:42;;;;;;;21.00;15.00;;;;;;;9.54;78.24;100490.55;130865;1257;108456;-80
2024/04/07 03:50:47;;;;;;;21.80;14.60;;;;;;;9.57;78.49;100487.50;130948;1256;107537;-78
2024/04/07 03:53:52;;;;;;;19.80;14.40;;;;;;;9.56;78.09;100489.27;130857;1256;107234;-79
2024/04/07 03:56:58;;;;;;;24.30;15.20;;;;;;;9.55;78.50;100499.50;130897;1256;106330;-78
2024/04/07 04:00:04;;;;;;;21.90;15.70;;;;;;;9.52;78.19;100499.52;130879;1263;107074;-78
2024/04/07 04:03:29;;;;;;;21.20;14.00;;;;;;;9.48;78.22;100485.81;130401;1257;106509;-79
2024/04/07 04:06:35;;;;;;;19.60;12.70;;;;;;;9.46;78.28;100487.05;130423;1256;107808;-79
2024/04/07 04:09:40;;;;;;;24.40;14.70;;;;;;;9.43;78.26;100490.11;130479;1256;108511;-79
2024/04/07 04:12:45;;;;;;;18.90;13.50;;;;;;;9.42;78.28;100488.25;130502;1256;108604;-79
2024/04/07 04:15:50;;;;;;;20.50;13.70;;;;;;;9.46;78.45;100490.22;130445;1259;106626;-78
2024/04/07 04:18:55;;;;;;;21.20;13.90;;;;;;;9.49;78.43;100490.19;130462;1256;107711;-78
2024/04/07 04:22:00;;;;;;;20.30;14.70;;;;;;;9.52;78.76;100492.35;130456;1259;107665;-78
2024/04/07 04:25:06;;;;;;;21.60;14.90;;;;;;;9.53;78.53;100497.77;130457;1256;108699;-78
2024/04/07 04:28:11;;;;;;;21.90;14.30;;;;;;;9.55;78.56;100502.78;130391;1257;108501;-78
2024/04/07 04:31:17;;;;;;;19.50;14.00;;;;;;;9.57;78.54;100505.42;130418;1262;106606;-78
2024/04/07 04:34:22;;;;;;;18.70;13.00;;;;;;;9.56;78.55;100507.27;130411;1262;106783;-78
2024/04/07 04:37:28;;;;;;;16.20;11.20;;;;;;;9.56;78.76;100510.97;130390;1262;108899;-78
2024/04/07 04:40:33;;;;;;;18.70;12.40;;;;;;;9.60;78.93;100510.94;130473;1256;109282;-78
2024/04/07 04:43:38;;;;;;;19.00;12.80;;;;;;;9.67;79.27;100509.45;130870;1256;107589;-78
2024/04/07 04:46:45;;;;;;;18.30;12.00;;;;;;;9.79;78.99;100506.52;130856;1256;107906;-78
2024/04/07 04:49:50;;;;;;;15.80;12.00;;;;;;;9.93;78.98;100505.13;130871;1256;106770;-79
2024/04/07 04:52:55;;;;;;;17.10;12.30;;;;;;;10.01;79.03;100511.44;130888;1256;106931;-79
2024/04/07 04:56:02;;;;;;;17.90;13.20;;;;;;;10.09;78.94;100518.02;130913;1264;106436;-80
2024/04/07 04:59:07;;;;;;;17.60;12.50;;;;;;;10.18;79.20;100521.45;130872;1257;106622;-78
2024/04/07 05:02:12;;;;;;;14.80;11.20;;;;;;;10.25;79.00;100515.42;130830;1256;107759;-79
2024/04/07 05:05:18;;;;;;;14.50;10.20;;;;;;;10.35;79.43;100512.00;130838;1257;106330;-78
2024/04/07 05:08:23;;;;;;;14.90;10.60;;;;;;;10.49;79.73;100504.66;130886;1256;107937;-79
2024/04/07 05:11:28;;;;;;;14.70;11.00;;;;;;;10.67;79.97;100501.73;130880;1256;108930;-79
2024/04/07 05:14:33;;;;;;;13.60;10.50;;;;;;;10.89;79.85;100501.91;130870;1256;108682;-79
2024/04/07 05:17:39;;;;;;;14.50;10.10;;;;;;;11.13;80.65;100497.60;130877;1253;106906;-79
2024/04/07 05:20:44;;;;;;;13.50;9.40;;;;;;;11.37;80.61;100493.30;130920;1256;107776;-79
2024/04/07 05:23:52;;;;;;;14.60;9.60;;;;;;;11.59;80.66;100489.89;130978;1255;106493;-79
2024/04/07 05:27:03;;;;;;;13.10;9.00;;;;;;;11.80;80.79;100490.09;130862;1256;106436;-79
2024/04/07 05:30:11;;;;;;;12.60;8.60;;;;;;;12.00;80.82;100487.40;130883;1256;107740;-79
2024/04/07 05:33:16;;;;;;;11.30;8.30;;;;;;;12.20;80.84;100488.56;130876;1256;108522;-79
2024/04/07 05:36:21;;;;;;;12.80;8.90;;;;;;;12.39;80.98;100485.70;130883;1264;108758;-78
2024/04/07 05:39:27;;;;;;;12.30;8.90;;;;;;;12.56;80.93;100486.05;130873;1264;106307;-79
2024/04/07 05:42:33;;;;;;;9.60;7.90;;;;;;;12.72;80.96;100488.66;130909;1256;106643;-79
2024/04/07 05:45:38;;;;;;;14.40;8.40;;;;;;;12.85;81.02;100489.61;130641;1256;107654;-78
2024/04/07 05:48:43;;;;;;;9.90;6.90;;;;;;;12.97;81.03;100491.23;130798;1256;106408;-80
2024/04/07 05:51:49;;;;;;;11.10;7.40;;;;;;;13.11;81.08;100487.54;130816;1253;107734;-80
2024/04/07 05:54:54;;;;;;;11.10;8.50;;;;;;;13.27;80.95;100483.60;130850;1254;107764;-79
2024/04/07 05:57:59;;;;;;;12.40;8.00;;;;;;;13.44;80.94;100495.56;130904;1253;108450;-78
2024/04/07 06:01:05;;;;;;;10.90;8.20;;;;;;;13.59;80.65;100496.05;130907;1256;107188;-79
2024/04/07 06:04:10;;;;;;;10.40;7.80;;;;;;;13.72;80.64;100496.80;130902;1254;106764;-79
2024/04/07 06:07:16;;;;;;;11.00;7.70;;;;;;;13.81;80.42;100494.52;130849;1254;106068;-80
2024/04/07 06:10:21;;;;;;;10.90;8.00;;;;;;;13.90;80.53;100494.40;130976;1254;106957;-80
2024/04/07 06:13:26;;;;;;;10.60;7.00;;;;;;;14.00;80.53;100492.21;130967;1256;106621;-80
2024/04/07 06:16:32;;;;;;;11.10;7.40;;;;;;;14.09;80.56;100482.48;130932;1256;107724;-80
2024/04/07 06:19:37;;;;;;;11.70;7.30;;;;;;;14.21;80.27;100485.17;131004;1256;107594;-80
2024/04/07 06:22:42;;;;;;;9.50;7.40;;;;;;;14.35;80.37;100482.98;130991;1253;107563;-80
2024/04/07 06:25:47;;;;;;;10.50;7.90;;;;;;;14.53;80.30;100496.63;130768;1256;107145;-80
2024/04/07 06:28:53;;;;;;;13.20;7.60;;;;;;;14.68;79.96;100500.97;130975;1256;108639;-80
2024/04/07 06:31:58;;;;;;;11.60;7.40;;;;;;;14.82;79.80;100496.92;131095;1256;106452;-80
2024/04/07 06:35:03;;;;;;;13.00;7.70;;;;;;;14.95;79.78;100497.23;131031;1257;107781;-80
2024/04/07 06:38:10;;;;;;;9.60;7.20;;;;;;;15.09;79.86;100499.08;131067;1256;107443;-79
2024/04/07 06:41:15;;;;;;;8.80;6.80;;;;;;;15.21;79.83;100499.39;130918;1253;107507;-80
2024/04/07 06:44:20;;;;;;;9.50;6.80;;;;;;;15.33;79.41;100499.65;130849;1257;108802;-80
2024/04/07 06:47:26;;;;;;;10.20;6.30;;;;;;;15.43;79.04;100505.30;130783;1253;108297;-80
2024/04/07 06:50:33;;;;;;;9.30;6.40;;;;;;;15.56;78.81;100502.86;130846;1256;108627;-80
2024/04/07 06:53:38;;;;;;;10.30;6.70;;;;;;;15.75;78.77;100498.42;130953;1251;107047;-81
2024/04/07 06:56:44;;;;;;;8.00;6.70;;;;;;;15.89;78.41;100487.38;131015;1253;108213;-80
2024/04/07 06:59:51;;;;;;;9.90;6.80;;;;;;;16.03;78.10;100486.95;130931;1255;107992;-80
2024/04/07 07:02:56;;;;;;;9.00;6.40;;;;;;;16.14;77.98;100484.65;130921;1256;108569;-80
2024/04/07 07:06:02;;;;;;;8.60;6.00;;;;;;;16.20;77.76;100484.66;130889;1256;107529;-80
2024/04/07 07:09:08;;;;;;;7.40;5.80;;;;;;;16.25;77.79;100480.80;130895;1254;106603;-80
2024/04/07 07:12:13;;;;;;;8.20;6.30;;;;;;;16.36;77.92;100482.70;130880;1265;108530;-79
2024/04/07 07:15:18;;;;;;;11.30;6.10;;;;;;;16.49;77.68;100487.27;130872;1254;108576;-78
2024/04/07 07:18:24;;;;;;;8.20;5.90;;;;;;;16.61;77.05;100485.91;131068;1255;107213;-78
2024/04/07 07:21:29;;;;;;;9.30;6.20;;;;;;;16.71;77.14;100482.39;130892;1253;106557;-78
2024/04/07 07:24:34;;;;;;;8.30;5.90;;;;;;;16.80;77.27;100489.26;130921;1256;106497;-78
2024/04/07 07:27:40;;;;;;;7.40;5.50;;;;;;;16.84;77.22;100485.62;130971;1256;106742;-78
2024/04/07 07:30:46;;;;;;;7.30;5.30;;;;;;;16.91;76.73;100481.26;130868;1254;106999;-78
2024/04/07 07:33:51;;;;;;;8.80;5.60;;;;;;;16.99;76.53;100486.94;130868;1256;108566;-78
2024/04/07 07:36:56;;;;;;;8.60;5.50;;;;;;;17.07;76.39;100496.00;130861;1256;107732;-78
2024/04/07 07:40:01;;;;;;;6.90;5.10;;;;;;;17.16;76.29;100500.84;130914;1254;106613;-82
2024/04/07 07:43:07;;;;;;;6.40;5.20;;;;;;;17.23;76.08;100506.55;131064;1256;108391;-83
2024/04/07 07:46:12;;;;;;;6.50;5.40;;;;;;;17.27;76.16;100505.23;130802;1256;106806;-81
2024/04/07 07:49:17;;;;;;;7.50;5.80;;;;;;;17.31;75.98;100507.10;130877;1254;106315;-81
2024/04/07 07:52:22;;;;;;;8.60;5.60;;;;;;;17.34;76.15;100509.41;130951;1254;106919;-81
2024/04/07 07:55:28;;;;;;;8.10;5.40;;;;;;;17.37;75.86;100509.92;130971;1253;107576;-81
2024/04/07 07:58:33;;;;;;;6.70;5.10;;;;;;;17.42;75.70;100510.83;131010;1256;107791;-81
2024/04/07 08:01:38;;;;;;;7.20;5.10;;;;;;;17.48;75.76;100517.55;130974;1256;107731;-81
2024/04/07 08:04:44;;;;;;;6.20;5.10;;;;;;;17.55;75.73;100528.17;131006;1256;107101;-81
2024/04/07 08:07:49;;;;;;;5.30;4.30;;;;;;;17.61;75.62;100529.23;131151;1253;105852;-81
2024/04/07 08:10:54;;;;;;;6.80;4.50;;;;;;;17.64;75.26;100530.39;131134;1251;108707;-81
2024/04/07 08:13:59;;;;;;;5.50;4.30;;;;;;;17.68;74.90;100534.53;131798;1256;108004;-79
2024/04/07 08:17:05;;;;;;;6.10;4.40;;;;;;;17.74;74.97;100537.16;131301;1256;106776;-79
2024/04/07 08:20:11;;;;;;;13.30;9.10;;;;;;;17.86;74.94;100535.96;130996;1253;107003;-79
2024/04/07 08:23:16;;;;;;;6.60;5.10;;;;;;;18.04;74.65;100528.53;131020;1256;106607;-80
2024/04/07 08:26:21;;;;;;;6.30;4.70;;;;;;;18.26;74.78;100531.69;131023;1263;107778;-79
2024/04/07 08:29:26;;;;;;;6.20;4.10;;;;;;;18.45;74.68;100528.78;131060;1256;108913;-80
2024/04/07 08:32:31;;;;;;;6.30;4.50;;;;;;;18.61;74.26;100530.91;130973;1256;106967;-79
2024/04/07 08:35:37;;;;;;;6.70;3.90;;;;;;;18.77;73.73;100525.30;131034;1256;107398;-80
2024/04/07 08:38:42;;;;;;;6.80;3.90;;;;;;;18.90;73.71;100518.77;131013;1256;107558;-80
2024/04/07 08:41:48;;;;;;;5.40;3.90;;;;;;;18.97;73.07;100516.56;130999;1253;107635;-79
2024/04/07 08:44:54;;;;;;;5.00;3.50;;;;;;;19.01;73.19;100514.63;131046;1256;107395;-79
2024/04/07 08:48:01;;;;;;;5.50;3.60;;;;;;;19.09;72.93;100513.66;131184;1253;107832;-79
2024/04/07 08:51:08;;;;;;;3.90;3.30;;;;;;;19.17;72.76;100512.64;131004;1256;106855;-80
2024/04/07 08:54:13;;;;;;;5.00;3.30;;;;;;;19.26;72.57;100515.76;131035;1255;106824;-80
2024/04/07 08:57:19;;;;;;;4.50;3.40;;;;;;;19.33;71.60;100508.81;131018;1253;107901;-79
2024/04/07 09:00:27;;;;;;;5.60;3.20;;;;;;;19.36;71.44;100505.95;131044;1256;108618;-79
2024/04/07 09:03:33;;;;;;;4.70;3.40;;;;;;;19.42;71.03;100505.17;130980;1256;108713;-79
2024/04/07 09:06:38;;;;;;;5.50;3.40;;;;;;;19.44;71.30;100499.90;130761;1256;107102;-79
2024/04/07 09:09:44;;;;;;;4.80;3.10;;;;;;;19.43;70.51;100497.44;130905;1256;106914;-79
2024/04/07 09:12:52;;;;;;;5.40;3.20;;;;;;;19.41;70.78;100494.77;131096;1256;107539;-81
2024/04/07 09:15:58;;;;;;;5.80;2.70;;;;;;;19.42;70.65;100495.10;131232;1256;108646;-80
2024/04/07 09:19:03;;;;;;;3.80;2.80;;;;;;;19.42;70.61;100489.11;131058;1254;107001;-79
2024/04/07 09:22:09;;;;;;;4.50;2.80;;;;;;;19.49;70.10;100487.37;131046;1256;108644;-79
2024/04/07 09:25:14;;;;;;;4.80;2.80;;;;;;;19.56;69.99;100485.25;131046;1254;107464;-79
2024/04/07 09:28:19;;;;;;;5.10;2.90;;;;;;;19.67;69.77;100482.96;131059;1256;107863;-79
2024/04/07 09:31:25;;;;;;;4.00;3.10;;;;;;;19.74;69.71;100476.67;130938;1254;106799;-79
2024/04/07 09:34:32;;;;;;;3.80;2.70;;;;;;;19.78;68.81;100475.60;130938;1257;106414;-80
2024/04/07 09:37:40;;;;;;;4.60;2.80;;;;;;;19.78;68.82;100473.10;130981;1257;108517;-79
2024/04/07 09:40:48;;;;;;;3.20;2.40;;;;;;;19.78;68.26;100473.48;131120;1256;107757;-80
2024/04/07 09:43:55;;;;;;;3.60;2.50;;;;;;;19.83;68.56;100467.59;131179;1257;107449;-80
2024/04/07 09:47:06;;;;;;;3.30;2.30;;;;;;;19.91;68.48;100469.08;131045;1253;107955;-77
2024/04/07 09:50:19;;;;;;;3.80;2.50;;;;;;;20.03;68.02;100464.70;130908;1256;106740;-77
2024/04/07 09:53:35;;;;;;;3.20;2.30;;;;;;;20.13;67.83;100462.39;130880;1257;106940;-77
2024/04/07 09:56:42;;;;;;;3.80;2.30;;;;;;;20.21;67.50;100454.38;130951;1256;107645;-77
2024/04/07 09:59:47;;;;;;;2.90;2.30;;;;;;;20.30;67.07;100456.11;130735;1257;108690;-77
2024/04/07 10:02:53;;;;;;;3.10;2.00;;;;;;;20.37;66.81;100452.46;130962;1256;106490;-78
2024/04/07 10:05:59;;;;;;;3.80;2.10;;;;;;;20.42;66.55;100449.36;130933;1254;108652;-77
2024/04/07 10:09:05;;;;;;;2.80;2.00;;;;;;;20.49;66.19;100445.98;130921;1256;107586;-77
2024/04/07 10:12:10;;;;;;;3.20;2.20;;;;;;;20.58;66.04;100443.95;131067;1265;107917;-78
2024/04/07 10:15:21;;;;;;;3.00;2.00;;;;;;;20.66;66.07;100436.56;131099;1256;108312;-77
2024/04/07 10:18:30;;;;;;;4.40;2.00;;;;;;;20.75;65.84;100436.55;131094;1256;107470;-77
2024/04/07 10:21:35;;;;;;;6.10;2.20;;;;;;;20.82;65.24;100437.36;130897;1256;106773;-77
2024/04/07 10:24:42;;;;;;;3.90;2.30;;;;;;;20.84;64.51;100433.66;130948;1264;106624;-77
2024/04/07 10:27:47;;;;;;;3.60;2.10;;;;;;;20.85;64.32;100421.89;130942;1256;106984;-77
2024/04/07 10:30:57;;;;;;;3.40;2.10;;;;;;;20.89;64.19;100414.49;131040;1256;108734;-82
2024/04/07 10:34:03;;;;;;;2.40;1.90;;;;;;;20.94;64.05;100414.73;131191;1256;106585;-82
2024/04/07 10:37:12;;;;;;;2.70;1.70;;;;;;;20.98;64.11;100416.07;131045;1256;108812;-82
2024/04/07 10:40:19;;;;;;;3.80;2.00;;;;;;;21.07;64.70;100414.92;131033;1257;106546;-77
2024/04/07 10:43:24;;;;;;;2.90;1.80;;;;;;;21.16;63.62;100411.11;130973;1255;107641;-78
2024/04/07 10:46:32;;;;;;;2.90;1.70;;;;;;;21.26;63.15;100412.41;130896;1256;107659;-78
2024/04/07 10:49:37;;;;;;;3.10;2.20;;;;;;;21.34;61.81;100423.30;130954;1252;106528;-77
2024/04/07 10:52:43;;;;;;;3.20;1.90;;;;;;;21.40;62.58;100423.09;130914;1257;107455;-77
2024/04/07 10:55:50;;;;;;;2.90;1.90;;;;;;;21.48;62.62;100418.98;130903;1256;108724;-77
2024/04/07 10:58:56;;;;;;;3.10;1.70;;;;;;;21.52;61.87;100416.67;130935;1257;108510;-77
2024/04/07 11:02:02;;;;;;;2.80;1.60;;;;;;;21.55;61.86;100410.97;130905;1254;107469;-78
2024/04/07 11:05:10;;;;;;;4.40;1.60;;;;;;;21.58;61.63;100407.56;130984;1256;108533;-78
2024/04/07 11:08:15;;;;;;;2.80;1.80;;;;;;;21.63;61.75;100410.13;130922;1256;106973;-78
2024/04/07 11:11:21;;;;;;;3.90;2.20;;;;;;;21.69;61.83;100411.23;130881;1257;106868;-78
2024/04/07 11:14:28;;;;;;;5.00;3.20;;;;;;;21.75;61.23;100412.02;131040;1251;108750;-77
2024/04/07 11:17:33;;;;;;;4.30;2.50;;;;;;;21.81;61.30;100408.95;130973;1256;106785;-78
2024/04/07 11:20:38;;;;;;;3.20;2.10;;;;;;;21.83;60.33;100406.75;130988;1257;106683;-77
2024/04/07 11:23:44;;;;;;;2.70;1.80;;;;;;;21.88;60.83;100406.20;130935;1257;106683;-78
2024/04/07 11:26:51;;;;;;;2.50;2.00;;;;;;;21.96;60.72;100405.13;130869;1255;106831;-78
2024/04/07 11:29:57;;;;;;;2.30;1.70;;;;;;;22.03;60.36;100409.91;130864;1256;108729;-77
2024/04/07 11:33:15;;;;;;;2.00;1.70;;;;;;;22.08;60.14;100407.19;130780;1260;108351;-77
2024/04/07 11:36:20;;;;;;;2.30;1.70;;;;;;;22.17;60.53;100405.11;130777;1257;106462;-77
2024/04/07 11:39:26;;;;;;;3.30;1.80;;;;;;;22.26;60.22;100401.77;131095;1253;107752;-78
2024/04/07 11:42:31;;;;;;;3.10;2.10;;;;;;;22.36;59.72;100398.79;130819;1264;106268;-78
2024/04/07 11:45:37;;;;;;;3.30;2.00;;;;;;;22.43;59.04;100407.02;130795;1257;107658;-78
2024/04/07 11:48:43;;;;;;;3.00;1.80;;;;;;;22.46;58.94;100409.70;130834;1260;107626;-77
2024/04/07 11:51:48;;;;;;;2.80;1.80;;;;;;;22.47;58.41;100404.80;130786;1257;107694;-81
2024/04/07 11:54:53;;;;;;;2.40;2.00;;;;;;;22.46;58.06;100399.03;130947;1255;107893;-80
2024/04/07 11:57:58;;;;;;;3.80;1.90;;;;;;;22.52;58.22;100394.48;130839;1266;107754;-79
2024/04/07 12:01:05;;;;;;;2.60;1.90;;;;;;;22.62;58.37;100395.73;130807;1266;108815;-79
2024/04/07 12:04:10;;;;;;;3.20;2.40;;;;;;;22.70;58.38;100392.41;130812;1266;106820;-80
2024/04/07 12:07:16;;;;;;;2.30;1.80;;;;;;;22.80;58.12;100390.83;130928;1264;107394;-76
2024/04/07 12:10:21;;;;;;;2.90;1.80;;;;;;;22.89;58.26;100393.48;130976;1256;108709;-76
2024/04/07 12:13:26;;;;;;;3.80;2.20;;;;;;;23.01;57.82;100389.22;130832;1258;107471;-76
2024/04/07 12:16:31;;;;;;;3.60;1.70;;;;;;;23.10;57.77;100387.14;130986;1256;107967;-76
2024/04/07 12:19:37;;;;;;;4.50;1.80;;;;;;;23.16;57.11;100394.59;130885;1265;108533;-79
2024/04/07 12:22:43;;;;;;;2.00;1.70;;;;;;;23.19;56.97;100390.70;131060;1255;107749;-80
2024/04/07 12:25:48;;;;;;;2.10;1.60;;;;;;;23.22;56.99;100384.02;131307;1256;106951;-79
2024/04/07 12:28:53;;;;;;;2.50;2.00;;;;;;;23.27;56.33;100376.29;131132;1255;108461;-81
2024/04/07 12:32:00;;;;;;;2.00;1.80;;;;;;;23.31;56.58;100373.49;130953;1256;259762;-79
2024/04/07 12:35:06;;;;;;;2.90;1.60;;;;;;;23.38;56.30;100371.28;130917;1265;108362;-79
2024/04/07 12:38:11;;;;;;;2.70;1.70;;;;;;;23.45;55.91;100365.96;130940;1265;108690;-79
2024/04/07 12:41:17;;;;;;;2.30;1.70;;;;;;;23.47;55.82;100360.94;131289;1254;108354;-81
2024/04/07 12:44:22;;;;;;;3.90;1.80;;;;;;;23.52;55.87;100366.19;131629;1264;107720;-82
2024/04/07 12:47:27;;;;;;;2.80;2.20;;;;;;;23.54;55.63;100367.09;131117;1256;106049;-81
2024/04/07 12:50:33;;;;;;;2.60;2.00;;;;;;;23.53;55.14;100363.11;131049;1256;105811;-80
2024/04/07 12:53:38;;;;;;;3.30;2.40;;;;;;;23.53;54.96;100356.98;131172;1257;107641;-81
2024/04/07 12:56:44;;;;;;;2.40;2.00;;;;;;;23.51;55.21;100348.58;131058;1257;107850;-81
2024/04/07 12:59:50;;;;;;;2.90;2.20;;;;;;;23.48;54.81;100338.02;131040;1255;107771;-81
2024/04/07 13:02:56;;;;;;;2.80;1.90;;;;;;;23.41;54.36;100337.01;131250;1257;108780;-81
2024/04/07 13:06:02;;;;;;;4.40;2.40;;;;;;;23.33;54.47;100331.20;131043;1261;107721;-81
2024/04/07 13:09:08;;;;;;;2.80;2.40;;;;;;;23.26;54.62;100325.96;131067;1251;107177;-81
2024/04/07 13:12:13;;;;;;;3.30;2.10;;;;;;;23.23;54.19;100324.30;131058;1255;107870;-81
2024/04/07 13:15:18;;;;;;;4.00;2.30;;;;;;;23.23;54.37;100319.23;131050;1256;107808;-81
2024/04/07 13:18:24;;;;;;;2.80;2.00;;;;;;;23.24;54.05;100309.31;131217;1255;107119;-80
2024/04/07 13:21:29;;;;;;;2.60;2.20;;;;;;;23.24;54.29;100311.16;131043;1256;107631;-82
2024/04/07 13:24:34;;;;;;;3.20;2.00;;;;;;;23.25;54.19;100306.75;130983;1257;108088;-81
2024/04/07 13:27:39;;;;;;;3.80;2.20;;;;;;;23.24;54.18;100303.25;131128;1257;108721;-81
2024/04/07 13:30:47;;;;;;;2.60;2.10;;;;;;;23.21;53.95;100299.07;131072;1264;106781;-81
2024/04/07 13:33:52;;;;;;;5.20;2.50;;;;;;;23.19;53.76;100300.48;131308;1256;106694;-82
2024/04/07 13:36:57;;;;;;;3.80;2.40;;;;;;;23.21;53.65;100305.90;131003;1257;108008;-81
2024/04/07 13:40:02;;;;;;;3.50;2.30;;;;;;;23.23;53.73;100303.18;131046;1251;107174;-82
2024/04/07 13:43:08;;;;;;;2.40;2.10;;;;;;;23.23;53.55;100305.36;131138;1257;106762;-80
2024/04/07 13:46:13;;;;;;;3.80;2.40;;;;;;;23.24;53.53;100299.45;131105;1258;107391;-81
2024/04/07 13:49:18;;;;;;;2.40;2.20;;;;;;;23.26;53.30;100294.92;131124;1258;107709;-82
2024/04/07 13:52:24;;;;;;;2.70;2.10;;;;;;;23.25;52.93;100294.30;131076;1257;106769;-82
2024/04/07 13:55:29;;;;;;;2.90;2.40;;;;;;;23.26;52.82;100296.23;131023;1255;107685;-81
2024/04/07 13:58:34;;;;;;;2.60;1.90;;;;;;;23.25;52.20;100290.66;131333;1253;107592;-81
2024/04/07 14:01:39;;;;;;;2.80;1.80;;;;;;;23.23;52.47;100289.36;131183;1267;108651;-81